Current | Forecast
Updated: 2:00 PM +10 on June 21, 2018
Observed at Yuzhno-Sakhalinsk, Russia
Temperature 54°F
Humidity 94%
Dew Point 52°F
Wind SSW at 9 mph
Pressure 29.53 in (Steady)
Conditions Overcast
Visibility 5.6 miles
UV 2 out of 16
Clouds Overcast (OVC) : 500 ft
Yesterday's Maximum 72°F
Yesterday's Minimum 50°F approx.
Yesterday's Heating Degree Days 4 approx.
Sunrise4:32 AM +10
Sunset8:28 PM +10
Moon Rise1:05 PM +10
Moon Set12:59 AM +10
Moon PhaseMoon Phase
First Quarter
Raw METARMETAR UHSS 210400Z 20004MPS 9000 OVC005CB 12/11 Q1000 R01/250255 NOSIG RMK MT OBSC QFE749/0999


Monday
. High: 51° F.
Tuesday
. High: 48° F.
Wednesday
. High: 51° F.
Thursday
. High: 55° F.
Friday
. High: 50° F.
Saturday
. High: 53° F.
Sunday
. High: 44° F.
Monday
. High: 57° F.

Units: English | Metric

Find the Weather for any City, State or Zipcode, or Country:

U.S. State List | Severe Weather | Tropical Storms | Ski Conditions
United States | Canada | Central America | South America | Asia | Europe | Australia | Africa | Islands

Weather Underground

© Copyright 2018
The Weather Company, LLC